Time;durP1;ratioP1;P1;durP2;ratioP2;P2;SDS_P1;SDS_P2;PMS_P1;PMS_P2;Temp;Humidity;BMP_temperature;BMP_pressure;BME280_temperature;BME280_humidity;BME280_pressure;Samples;Min_cycle;Max_cycle;Signal;HPM_P1;HPM_P2
2023/04/18 00:00:56;;;;;;;16.15;9.20;;;;;;;;;;5052317;28;20079;-77
2023/04/18 00:03:21;;;;;;;16.92;8.82;;;;;;;;;;5052334;28;20087;-77
2023/04/18 00:05:47;;;;;;;15.18;9.13;;;;;;;;;;5052751;28;20480;-77
2023/04/18 00:08:13;;;;;;;18.92;11.45;;;;;;;;;;5052703;28;20509;-76
2023/04/18 00:10:38;;;;;;;17.13;10.00;;;;;;;;;;5052585;28;20559;-77
2023/04/18 00:13:04;;;;;;;17.55;10.55;;;;;;;;;;5052656;28;20064;-78
2023/04/18 00:15:30;;;;;;;17.00;10.25;;;;;;;;;;5052615;28;20515;-77
2023/04/18 00:17:55;;;;;;;18.80;10.63;;;;;;;;;;5052139;28;20033;-82
2023/04/18 00:20:21;;;;;;;18.98;11.32;;;;;;;;;;5053313;28;20025;-78
2023/04/18 00:22:46;;;;;;;17.67;11.48;;;;;;;;;;5053014;28;20557;-77
2023/04/18 00:25:12;;;;;;;18.92;11.70;;;;;;;;;;5058510;28;20028;-78
2023/04/18 00:27:38;;;;;;;16.85;11.02;;;;;;;;;;5056153;28;20479;-77
2023/04/18 00:30:04;;;;;;;16.73;10.93;;;;;;;;;;5057309;28;20024;-78
2023/04/18 00:32:30;;;;;;;18.17;11.38;;;;;;;;;;5057939;28;20471;-78
2023/04/18 00:34:55;;;;;;;13.32;8.35;;;;;;;;;;5056077;28;20078;-78
2023/04/18 00:37:20;;;;;;;16.48;10.15;;;;;;;;;;5056443;28;20021;-77
2023/04/18 00:39:45;;;;;;;14.40;9.32;;;;;;;;;;5057749;28;20024;-77
2023/04/18 00:42:11;;;;;;;16.20;10.52;;;;;;;;;;5057359;28;20531;-78
2023/04/18 00:44:36;;;;;;;15.65;8.57;;;;;;;;;;5058183;28;20033;-78
2023/04/18 00:47:02;;;;;;;16.90;10.65;;;;;;;;;;5057693;28;20021;-78
2023/04/18 00:49:27;;;;;;;18.77;11.43;;;;;;;;;;5056970;28;20028;-77
2023/04/18 00:51:54;;;;;;;14.60;10.00;;;;;;;;;;5057339;28;20057;-78
2023/04/18 00:54:20;;;;;;;17.95;12.40;;;;;;;;;;5057692;28;20449;-78
2023/04/18 00:56:46;;;;;;;15.95;10.07;;;;;;;;;;5057783;28;20033;-78
2023/04/18 00:59:12;;;;;;;19.52;12.77;;;;;;;;;;5055305;28;20025;-77
2023/04/18 01:01:39;;;;;;;14.35;9.43;;;;;;;;;;5056239;28;20507;-78
2023/04/18 01:04:05;;;;;;;14.88;10.48;;;;;;;;;;5055490;28;20024;-77
2023/04/18 01:06:30;;;;;;;11.90;7.97;;;;;;;;;;5053953;28;20031;-77
2023/04/18 01:08:56;;;;;;;22.40;12.65;;;;;;;;;;5055056;28;20095;-77
2023/04/18 01:11:21;;;;;;;17.58;10.98;;;;;;;;;;5053965;28;20067;-77
2023/04/18 01:14:04;;;;;;;16.83;11.40;;;;;;;;;;5058306;28;20059;-78
2023/04/18 01:16:33;;;;;;;16.75;11.68;;;;;;;;;;5057621;28;20029;-78
2023/04/18 01:19:00;;;;;;;17.85;12.13;;;;;;;;;;5056273;28;20036;-78
2023/04/18 01:21:25;;;;;;;15.35;9.63;;;;;;;;;;5058288;28;20028;-78
2023/04/18 01:23:52;;;;;;;16.85;10.77;;;;;;;;;;5057543;28;20048;-78
2023/04/18 01:26:18;;;;;;;18.73;10.85;;;;;;;;;;5057274;28;20029;-78
2023/04/18 01:28:43;;;;;;;16.77;11.02;;;;;;;;;;5057712;28;20025;-78
2023/04/18 01:31:08;;;;;;;18.40;12.30;;;;;;;;;;5056754;28;20017;-78
2023/04/18 01:33:34;;;;;;;22.42;13.45;;;;;;;;;;5055105;28;20021;-77
2023/04/18 01:35:59;;;;;;;12.35;8.38;;;;;;;;;;5054986;28;20482;-77
2023/04/18 01:38:24;;;;;;;18.25;10.32;;;;;;;;;;5054723;28;20032;-78
2023/04/18 01:40:49;;;;;;;20.60;13.55;;;;;;;;;;5055128;28;20017;-77
2023/04/18 01:43:15;;;;;;;20.37;13.63;;;;;;;;;;5054465;28;20032;-77
2023/04/18 01:45:40;;;;;;;19.35;13.85;;;;;;;;;;5054484;28;20245;-77
2023/04/18 01:48:05;;;;;;;20.03;13.83;;;;;;;;;;5054501;28;20025;-77
2023/04/18 01:50:30;;;;;;;21.23;12.45;;;;;;;;;;5054713;28;20289;-77
2023/04/18 01:52:56;;;;;;;21.83;14.20;;;;;;;;;;5054258;28;20017;-77
2023/04/18 01:55:21;;;;;;;22.03;14.67;;;;;;;;;;5054770;28;20025;-77
2023/04/18 01:57:46;;;;;;;20.13;13.43;;;;;;;;;;5054598;28;20257;-78
2023/04/18 02:00:12;;;;;;;19.85;10.38;;;;;;;;;;5055676;28;20250;-78
2023/04/18 02:02:37;;;;;;;22.05;13.73;;;;;;;;;;5056666;28;20036;-80
2023/04/18 02:05:02;;;;;;;23.38;14.15;;;;;;;;;;5054106;28;20033;-75
2023/04/18 02:07:28;;;;;;;21.35;13.45;;;;;;;;;;5054084;28;20021;-76
2023/04/18 02:09:53;;;;;;;21.15;12.50;;;;;;;;;;5053988;28;20082;-75
2023/04/18 02:12:18;;;;;;;17.38;11.82;;;;;;;;;;5053803;28;20036;-76
2023/04/18 02:14:43;;;;;;;22.20;14.80;;;;;;;;;;5053764;28;20399;-75
2023/04/18 02:17:09;;;;;;;24.63;14.80;;;;;;;;;;5052514;28;20033;-76
2023/04/18 02:19:34;;;;;;;21.80;14.55;;;;;;;;;;5053819;28;20262;-76
2023/04/18 02:21:59;;;;;;;17.90;11.30;;;;;;;;;;5053731;28;20028;-75
2023/04/18 02:24:24;;;;;;;25.80;14.55;;;;;;;;;;5052469;28;20396;-75
2023/04/18 02:26:50;;;;;;;20.80;13.02;;;;;;;;;;5053653;28;20078;-75
2023/04/18 02:29:15;;;;;;;26.43;15.87;;;;;;;;;;5053806;28;20036;-75
2023/04/18 02:31:40;;;;;;;24.83;15.27;;;;;;;;;;5052214;28;20270;-75
2023/04/18 02:34:06;;;;;;;19.05;12.35;;;;;;;;;;5053664;28;20480;-75
2023/04/18 02:36:32;;;;;;;20.92;13.27;;;;;;;;;;5053456;28;20029;-76
2023/04/18 02:38:57;;;;;;;21.92;14.15;;;;;;;;;;5052226;28;20025;-75
2023/04/18 02:41:23;;;;;;;24.33;14.40;;;;;;;;;;5054175;28;20032;-75
2023/04/18 02:43:48;;;;;;;24.83;14.45;;;;;;;;;;5053799;28;20090;-74
2023/04/18 02:46:13;;;;;;;24.35;13.88;;;;;;;;;;5052113;28;20503;-76
2023/04/18 02:48:39;;;;;;;22.45;14.60;;;;;;;;;;5052625;28;20091;-76
2023/04/18 02:51:06;;;;;;;23.60;15.23;;;;;;;;;;5053642;28;20503;-75
2023/04/18 02:53:32;;;;;;;23.08;14.23;;;;;;;;;;5053223;28;20096;-75
2023/04/18 02:55:57;;;;;;;23.88;14.25;;;;;;;;;;5053704;28;20049;-75
2023/04/18 02:58:22;;;;;;;20.90;13.65;;;;;;;;;;5051974;28;20029;-76
2023/04/18 03:00:49;;;;;;;21.80;12.77;;;;;;;;;;5052866;28;20119;-75
2023/04/18 03:03:14;;;;;;;22.95;14.27;;;;;;;;;;5051930;28;20363;-76
2023/04/18 03:05:40;;;;;;;23.13;14.20;;;;;;;;;;5053297;28;20108;-75
2023/04/18 03:08:05;;;;;;;23.80;13.20;;;;;;;;;;5053063;28;20556;-76
2023/04/18 03:10:30;;;;;;;23.93;13.20;;;;;;;;;;5053218;28;20021;-76
2023/04/18 03:12:55;;;;;;;20.40;12.68;;;;;;;;;;5052881;28;20252;-76
2023/04/18 03:15:21;;;;;;;23.42;13.60;;;;;;;;;;5052933;28;20028;-75
2023/04/18 03:17:46;;;;;;;24.90;12.75;;;;;;;;;;5053177;28;20017;-76
2023/04/18 03:20:11;;;;;;;24.10;13.30;;;;;;;;;;5053249;28;20075;-75
2023/04/18 03:22:37;;;;;;;24.17;13.20;;;;;;;;;;5051674;28;20029;-75
2023/04/18 03:25:02;;;;;;;20.73;12.57;;;;;;;;;;5051540;28;20025;-75
2023/04/18 03:27:27;;;;;;;21.45;12.30;;;;;;;;;;5053037;28;20029;-75
2023/04/18 03:29:56;;;;;;;23.27;13.57;;;;;;;;;;5053397;28;20032;-76
2023/04/18 03:32:21;;;;;;;20.30;12.45;;;;;;;;;;5051533;28;20541;-76
2023/04/18 03:34:46;;;;;;;23.17;13.30;;;;;;;;;;5052693;28;20020;-75
2023/04/18 03:37:11;;;;;;;25.08;13.52;;;;;;;;;;5052993;28;20316;-76
2023/04/18 03:39:37;;;;;;;18.77;10.90;;;;;;;;;;5052941;28;20027;-76
2023/04/18 03:42:02;;;;;;;18.53;10.63;;;;;;;;;;5052598;28;20349;-75
2023/04/18 03:44:27;;;;;;;24.35;12.40;;;;;;;;;;5051675;28;20356;-75
2023/04/18 03:46:53;;;;;;;22.20;12.57;;;;;;;;;;5051377;28;20028;-75
2023/04/18 03:49:18;;;;;;;18.48;11.48;;;;;;;;;;5052604;28;20399;-75
2023/04/18 03:51:48;;;;;;;14.20;9.50;;;;;;;;;;5052895;28;20477;-75
2023/04/18 03:54:14;;;;;;;21.23;12.35;;;;;;;;;;5051307;28;20028;-76
2023/04/18 03:56:40;;;;;;;23.83;13.57;;;;;;;;;;5052537;28;20029;-75
2023/04/18 03:59:05;;;;;;;22.85;11.80;;;;;;;;;;5056189;28;20032;-77
2023/04/18 04:01:31;;;;;;;21.40;11.73;;;;;;;;;;5054756;28;20170;-76
2023/04/18 04:03:56;;;;;;;20.63;12.07;;;;;;;;;;5056266;28;20049;-75
2023/04/18 04:06:21;;;;;;;22.00;12.48;;;;;;;;;;5056276;28;20103;-76
2023/04/18 04:08:46;;;;;;;21.77;11.85;;;;;;;;;;5056208;28;20029;-75
2023/04/18 04:11:12;;;;;;;22.93;11.37;;;;;;;;;;5055996;28;20099;-76
2023/04/18 04:13:37;;;;;;;22.60;13.27;;;;;;;;;;5056244;28;20313;-75
2023/04/18 04:16:03;;;;;;;25.58;13.15;;;;;;;;;;5056040;28;20067;-76
2023/04/18 04:18:30;;;;;;;16.33;9.40;;;;;;;;;;5054754;28;20037;-75
2023/04/18 04:20:56;;;;;;;19.75;11.00;;;;;;;;;;5057050;28;20362;-75
2023/04/18 04:23:21;;;;;;;22.27;14.05;;;;;;;;;;5056654;28;20428;-76
2023/04/18 04:25:47;;;;;;;22.52;13.32;;;;;;;;;;5057078;28;20056;-75
2023/04/18 04:28:13;;;;;;;21.65;11.55;;;;;;;;;;5055982;28;20507;-76
2023/04/18 04:30:40;;;;;;;22.85;13.40;;;;;;;;;;5055774;28;20032;-76
2023/04/18 04:33:06;;;;;;;22.05;13.60;;;;;;;;;;5054489;28;20020;-75
2023/04/18 04:35:33;;;;;;;26.08;13.30;;;;;;;;;;5055814;28;20369;-75
2023/04/18 04:38:00;;;;;;;22.42;12.43;;;;;;;;;;5056013;28;20024;-76
2023/04/18 04:40:26;;;;;;;25.58;14.45;;;;;;;;;;5055957;28;20027;-75
2023/04/18 04:42:52;;;;;;;23.42;13.68;;;;;;;;;;5055408;28;20028;-75
2023/04/18 04:45:18;;;;;;;26.05;12.77;;;;;;;;;;5056102;28;20033;-75
2023/04/18 04:47:44;;;;;;;25.60;14.43;;;;;;;;;;5055555;28;20100;-76
2023/04/18 04:50:13;;;;;;;23.02;11.80;;;;;;;;;;5055433;28;20063;-75
2023/04/18 04:52:39;;;;;;;22.52;14.25;;;;;;;;;;5055282;28;20439;-75
2023/04/18 04:55:04;;;;;;;24.13;13.60;;;;;;;;;;5055708;28;20025;-75
2023/04/18 04:57:30;;;;;;;25.20;13.38;;;;;;;;;;5055103;28;20079;-75
2023/04/18 04:59:55;;;;;;;28.03;14.50;;;;;;;;;;5054748;28;20029;-76
2023/04/18 05:02:21;;;;;;;23.97;14.03;;;;;;;;;;5055214;28;20331;-76
2023/04/18 05:04:47;;;;;;;22.67;13.90;;;;;;;;;;5055256;28;20254;-76
2023/04/18 05:07:13;;;;;;;25.10;14.00;;;;;;;;;;5055343;28;20027;-76
2023/04/18 05:09:38;;;;;;;23.53;13.57;;;;;;;;;;5055016;28;20029;-76
2023/04/18 05:12:03;;;;;;;17.53;9.40;;;;;;;;;;5054922;28;20308;-76
2023/04/18 05:14:29;;;;;;;23.50;13.27;;;;;;;;;;5053684;28;20250;-75
2023/04/18 05:16:55;;;;;;;21.40;12.80;;;;;;;;;;5055216;28;20396;-75
2023/04/18 05:19:20;;;;;;;28.15;13.95;;;;;;;;;;5054878;28;20151;-75
2023/04/18 05:21:45;;;;;;;31.25;13.55;;;;;;;;;;5054816;28;20025;-75
2023/04/18 05:24:11;;;;;;;26.20;14.40;;;;;;;;;;5054606;28;20072;-74
2023/04/18 05:26:36;;;;;;;21.60;12.38;;;;;;;;;;5053483;28;20017;-75
2023/04/18 05:29:01;;;;;;;20.77;12.07;;;;;;;;;;5053421;28;20526;-76
2023/04/18 05:31:26;;;;;;;24.10;13.70;;;;;;;;;;5054082;28;20025;-74
2023/04/18 05:33:52;;;;;;;25.13;13.80;;;;;;;;;;5055091;28;20025;-74
2023/04/18 05:36:17;;;;;;;23.40;13.37;;;;;;;;;;5054529;28;20352;-74
2023/04/18 05:38:42;;;;;;;25.38;13.00;;;;;;;;;;5054482;28;20289;-75
2023/04/18 05:41:07;;;;;;;26.67;12.00;;;;;;;;;;5054382;28;20442;-74
2023/04/18 05:43:32;;;;;;;26.38;13.00;;;;;;;;;;5054432;28;20649;-75
2023/04/18 05:45:58;;;;;;;23.52;12.60;;;;;;;;;;5055109;28;20028;-74
2023/04/18 05:48:23;;;;;;;22.63;12.87;;;;;;;;;;5053004;28;20025;-75
2023/04/18 05:50:49;;;;;;;24.30;12.30;;;;;;;;;;5054173;28;20269;-76
2023/04/18 05:53:14;;;;;;;23.80;12.70;;;;;;;;;;5052722;28;20031;-75
2023/04/18 05:55:39;;;;;;;20.47;11.17;;;;;;;;;;5054155;28;20340;-76
2023/04/18 05:58:05;;;;;;;21.52;11.80;;;;;;;;;;5054332;28;20296;-75
2023/04/18 06:00:30;;;;;;;19.08;10.93;;;;;;;;;;5054214;28;20021;-75
2023/04/18 06:02:56;;;;;;;22.98;11.52;;;;;;;;;;5053860;28;20028;-75
2023/04/18 06:05:21;;;;;;;23.48;12.88;;;;;;;;;;5052696;28;20541;-75
2023/04/18 06:07:47;;;;;;;21.27;11.95;;;;;;;;;;5054211;28;20028;-75
2023/04/18 06:10:12;;;;;;;21.10;11.05;;;;;;;;;;5054112;28;20029;-75
2023/04/18 06:12:38;;;;;;;20.50;10.95;;;;;;;;;;5053753;28;20139;-75
2023/04/18 06:15:04;;;;;;;23.40;11.43;;;;;;;;;;5053996;28;20032;-75
2023/04/18 06:17:29;;;;;;;24.05;10.90;;;;;;;;;;5053663;28;20029;-75
2023/04/18 06:19:55;;;;;;;21.40;11.18;;;;;;;;;;5051973;28;20032;-75
2023/04/18 06:22:20;;;;;;;21.50;10.30;;;;;;;;;;5052292;28;20101;-75
2023/04/18 06:24:45;;;;;;;24.70;11.13;;;;;;;;;;5052331;28;20258;-75
2023/04/18 06:27:11;;;;;;;14.07;7.77;;;;;;;;;;5053557;28;20312;-75
2023/04/18 06:29:36;;;;;;;22.83;10.60;;;;;;;;;;5053662;28;20254;-75
2023/04/18 06:32:02;;;;;;;20.98;10.70;;;;;;;;;;5053547;28;20033;-75
2023/04/18 06:34:27;;;;;;;19.13;10.68;;;;;;;;;;5053400;28;20033;-75
2023/04/18 06:36:52;;;;;;;22.30;9.53;;;;;;;;;;5053464;28;20025;-75
2023/04/18 06:39:18;;;;;;;22.45;11.57;;;;;;;;;;5053360;28;20261;-75
2023/04/18 06:41:43;;;;;;;19.58;10.27;;;;;;;;;;5053293;28;20472;-75
2023/04/18 06:44:08;;;;;;;17.23;9.53;;;;;;;;;;5051907;28;20029;-75
2023/04/18 06:46:33;;;;;;;21.38;11.02;;;;;;;;;;5053496;28;20264;-75
2023/04/18 06:48:59;;;;;;;18.75;10.60;;;;;;;;;;5053515;28;20037;-75
2023/04/18 06:51:24;;;;;;;19.23;10.43;;;;;;;;;;5051943;28;20016;-76
2023/04/18 06:53:51;;;;;;;18.40;10.40;;;;;;;;;;5051842;28;20056;-75
2023/04/18 06:56:20;;;;;;;20.75;11.65;;;;;;;;;;5051889;28;20025;-75
2023/04/18 06:58:46;;;;;;;20.60;10.65;;;;;;;;;;5052851;28;20066;-75
2023/04/18 07:01:11;;;;;;;18.55;11.02;;;;;;;;;;5052794;28;20033;-75
2023/04/18 07:03:36;;;;;;;19.40;11.38;;;;;;;;;;5052866;28;20443;-75
2023/04/18 07:06:02;;;;;;;18.53;10.13;;;;;;;;;;5051697;28;20048;-75
2023/04/18 07:08:27;;;;;;;19.35;10.50;;;;;;;;;;5053074;28;20257;-75
2023/04/18 07:10:52;;;;;;;20.40;9.93;;;;;;;;;;5052756;28;20387;-75
2023/04/18 07:13:17;;;;;;;20.03;10.13;;;;;;;;;;5052807;28;20028;-74
2023/04/18 07:15:43;;;;;;;22.70;11.60;;;;;;;;;;5052867;28;20266;-74
2023/04/18 07:18:08;;;;;;;18.73;11.23;;;;;;;;;;5053079;28;20262;-75
2023/04/18 07:20:33;;;;;;;16.80;7.85;;;;;;;;;;5053098;28;20028;-75
2023/04/18 07:22:58;;;;;;;19.33;11.03;;;;;;;;;;5052564;28;20094;-75
2023/04/18 07:25:24;;;;;;;22.03;11.17;;;;;;;;;;5051517;28;20254;-74
2023/04/18 07:27:49;;;;;;;20.25;11.00;;;;;;;;;;5052726;28;20304;-75
2023/04/18 07:30:14;;;;;;;19.05;10.73;;;;;;;;;;5052761;28;20033;-75
2023/04/18 07:32:40;;;;;;;19.13;11.63;;;;;;;;;;5054937;28;20063;-75
2023/04/18 07:35:05;;;;;;;21.45;11.45;;;;;;;;;;5057405;28;20017;-74
2023/04/18 07:37:31;;;;;;;21.27;10.07;;;;;;;;;;5056264;28;20112;-78
2023/04/18 07:39:56;;;;;;;16.40;9.88;;;;;;;;;;5057009;28;20025;-77
2023/04/18 07:42:21;;;;;;;18.73;11.00;;;;;;;;;;5056095;28;20025;-74
2023/04/18 07:44:48;;;;;;;19.30;11.43;;;;;;;;;;5056919;28;20261;-76
2023/04/18 07:47:13;;;;;;;19.77;11.07;;;;;;;;;;5056830;28;20266;-75
2023/04/18 07:49:38;;;;;;;18.00;11.18;;;;;;;;;;5056955;28;20476;-76
2023/04/18 07:52:04;;;;;;;22.63;11.13;;;;;;;;;;5056755;28;20043;-75
2023/04/18 07:54:29;;;;;;;20.23;11.15;;;;;;;;;;5056548;28;20104;-76
2023/04/18 07:56:55;;;;;;;19.83;11.07;;;;;;;;;;5056930;28;20028;-74
2023/04/18 07:59:20;;;;;;;24.90;11.52;;;;;;;;;;5056750;28;20044;-77
2023/04/18 08:01:46;;;;;;;21.95;10.50;;;;;;;;;;5055791;28;20028;-76
2023/04/18 08:04:11;;;;;;;19.23;11.33;;;;;;;;;;5056856;28;20111;-75
2023/04/18 08:06:37;;;;;;;20.27;11.43;;;;;;;;;;5056453;28;20290;-75
2023/04/18 08:09:05;;;;;;;21.13;10.23;;;;;;;;;;5056786;28;20423;-76
2023/04/18 08:11:34;;;;;;;17.63;8.55;;;;;;;;;;5056238;28;20029;-76
2023/04/18 08:13:59;;;;;;;19.70;9.95;;;;;;;;;;5056328;28;20384;-75
2023/04/18 08:16:25;;;;;;;18.80;10.13;;;;;;;;;;5056184;28;20028;-75
2023/04/18 08:18:50;;;;;;;19.02;10.50;;;;;;;;;;5054929;28;20029;-76
2023/04/18 08:21:17;;;;;;;20.45;10.15;;;;;;;;;;5054815;28;20033;-76
2023/04/18 08:23:42;;;;;;;18.95;10.35;;;;;;;;;;5054660;28;20028;-75
2023/04/18 08:26:07;;;;;;;16.90;9.70;;;;;;;;;;5055952;28;20041;-76
2023/04/18 08:28:32;;;;;;;17.85;9.40;;;;;;;;;;5056169;28;20265;-75
2023/04/18 08:30:58;;;;;;;19.17;9.47;;;;;;;;;;5055890;28;20029;-75
2023/04/18 08:33:23;;;;;;;20.30;10.05;;;;;;;;;;5055651;28;20254;-75
2023/04/18 08:35:51;;;;;;;18.80;8.85;;;;;;;;;;5055985;28;20020;-75
2023/04/18 08:38:17;;;;;;;19.30;10.45;;;;;;;;;;5055629;28;20408;-76
2023/04/18 08:40:43;;;;;;;16.60;10.05;;;;;;;;;;5055900;28;20028;-76
2023/04/18 08:43:12;;;;;;;20.73;10.02;;;;;;;;;;5054989;28;20028;-76
2023/04/18 08:45:39;;;;;;;18.70;9.93;;;;;;;;;;5054529;28;20024;-75
2023/04/18 08:48:06;;;;;;;18.63;9.75;;;;;;;;;;5056035;28;20036;-75
2023/04/18 08:50:32;;;;;;;19.63;10.23;;;;;;;;;;5055880;28;20025;-76
2023/04/18 08:52:59;;;;;;;19.05;9.77;;;;;;;;;;5056105;28;20025;-77
2023/04/18 08:55:25;;;;;;;17.50;8.88;;;;;;;;;;5055927;28;20021;-75
2023/04/18 08:57:53;;;;;;;17.50;9.45;;;;;;;;;;5054446;28;20499;-76
2023/04/18 09:00:18;;;;;;;17.58;9.23;;;;;;;;;;5055037;28;20048;-75
2023/04/18 09:02:45;;;;;;;19.95;9.82;;;;;;;;;;5055342;28;20025;-74
2023/04/18 09:05:13;;;;;;;16.50;8.32;;;;;;;;;;5054753;28;20032;-75
2023/04/18 09:07:38;;;;;;;17.70;8.85;;;;;;;;;;5055535;28;20554;-76
2023/04/18 09:10:04;;;;;;;18.13;9.90;;;;;;;;;;5054278;28;20029;-76
2023/04/18 09:12:31;;;;;;;18.92;9.50;;;;;;;;;;5055506;28;20504;-76
2023/04/18 09:15:09;;;;;;;18.90;9.63;;;;;;;;;;5055464;28;20056;-76
2023/04/18 09:17:37;;;;;;;17.38;9.07;;;;;;;;;;5055261;28;20025;-75
2023/04/18 09:20:04;;;;;;;18.60;9.10;;;;;;;;;;5055290;28;20535;-75
2023/04/18 09:22:47;;;;;;;18.88;10.38;;;;;;;;;;5055079;28;20040;-76
2023/04/18 09:25:33;;;;;;;16.42;9.38;;;;;;;;;;5053608;28;20025;-76
2023/04/18 09:28:00;;;;;;;18.55;9.90;;;;;;;;;;5054789;28;20025;-76
2023/04/18 09:30:33;;;;;;;19.92;10.57;;;;;;;;;;5054817;28;20412;-77
2023/04/18 09:33:00;;;;;;;21.25;11.07;;;;;;;;;;5054559;28;20025;-76
2023/04/18 09:35:25;;;;;;;22.65;11.50;;;;;;;;;;5053347;28;20041;-76
2023/04/18 09:37:51;;;;;;;21.58;11.90;;;;;;;;;;5053198;28;20025;-76
2023/04/18 09:40:19;;;;;;;22.92;11.82;;;;;;;;;;5054563;28;20540;-75
2023/04/18 09:42:46;;;;;;;23.48;12.85;;;;;;;;;;5053070;28;20108;-77
2023/04/18 09:45:12;;;;;;;22.95;13.13;;;;;;;;;;5053113;28;20404;-76
2023/04/18 09:47:38;;;;;;;27.13;13.70;;;;;;;;;;5054384;28;20016;-75
2023/04/18 09:50:05;;;;;;;19.45;10.77;;;;;;;;;;5054599;28;20162;-75
2023/04/18 09:52:41;;;;;;;18.83;10.68;;;;;;;;;;5054671;28;20025;-75
2023/04/18 09:55:09;;;;;;;25.67;12.27;;;;;;;;;;5051931;28;20032;-75
2023/04/18 09:57:36;;;;;;;23.58;12.23;;;;;;;;;;5054182;28;20044;-75
2023/04/18 10:00:09;;;;;;;23.67;13.35;;;;;;;;;;5054117;28;20598;-75
2023/04/18 10:02:49;;;;;;;21.38;12.25;;;;;;;;;;5052838;28;20167;-75
2023/04/18 10:05:15;;;;;;;21.77;11.75;;;;;;;;;;5054109;28;20048;-75
2023/04/18 10:07:43;;;;;;;21.38;11.95;;;;;;;;;;5053980;28;20033;-75
2023/04/18 10:10:09;;;;;;;24.67;11.85;;;;;;;;;;5053989;28;20056;-75
2023/04/18 10:12:36;;;;;;;21.02;11.48;;;;;;;;;;5054033;28;20052;-76
2023/04/18 10:15:03;;;;;;;21.92;11.95;;;;;;;;;;5052730;28;20498;-75
2023/04/18 10:17:34;;;;;;;17.55;9.50;;;;;;;;;;5053832;28;20025;-75
2023/04/18 10:20:05;;;;;;;17.88;9.77;;;;;;;;;;5054189;28;20021;-76
2023/04/18 10:22:30;;;;;;;21.17;11.68;;;;;;;;;;5053654;28;20123;-74
2023/04/18 10:24:56;;;;;;;21.00;11.77;;;;;;;;;;5053702;28;20111;-75
2023/04/18 10:27:55;;;;;;;21.15;11.80;;;;;;;;;;5053734;28;20037;-75
2023/04/18 10:30:40;;;;;;;19.02;10.70;;;;;;;;;;5053631;28;20021;-74
2023/04/18 10:33:23;;;;;;;19.48;11.30;;;;;;;;;;5052082;28;20480;-74
2023/04/18 10:36:07;;;;;;;20.77;9.95;;;;;;;;;;5052187;28;20139;-74
2023/04/18 10:38:33;;;;;;;18.10;11.52;;;;;;;;;;5053343;28;20020;-74
2023/04/18 10:41:27;;;;;;;16.10;10.18;;;;;;;;;;5053348;28;20078;-76
2023/04/18 10:44:13;;;;;;;19.27;10.90;;;;;;;;;;5051940;28;20028;-75
2023/04/18 10:47:07;;;;;;;19.58;11.07;;;;;;;;;;5053592;28;20031;-75
2023/04/18 10:49:35;;;;;;;17.17;10.57;;;;;;;;;;5055761;28;20086;-76
2023/04/18 10:52:01;;;;;;;21.60;11.55;;;;;;;;;;5056871;28;20300;-75
2023/04/18 10:54:31;;;;;;;16.98;10.27;;;;;;;;;;5055020;28;20028;-74
2023/04/18 10:57:00;;;;;;;18.95;10.10;;;;;;;;;;5056188;28;20027;-75
2023/04/18 10:59:27;;;;;;;18.55;11.05;;;;;;;;;;5054863;28;20080;-74
2023/04/18 11:01:55;;;;;;;22.63;12.18;;;;;;;;;;5053878;28;20036;-75
2023/04/18 11:04:23;;;;;;;24.52;11.90;;;;;;;;;;5055737;28;20040;-75
2023/04/18 11:06:51;;;;;;;26.13;12.35;;;;;;;;;;5056209;28;20068;-76
2023/04/18 11:09:17;;;;;;;21.35;12.38;;;;;;;;;;5054198;28;20021;-75
2023/04/18 11:11:43;;;;;;;22.73;12.43;;;;;;;;;;5052780;28;20035;-75
2023/04/18 11:14:08;;;;;;;25.20;12.55;;;;;;;;;;5051619;28;20561;-75
2023/04/18 11:16:34;;;;;;;21.23;12.75;;;;;;;;;;5051668;28;20484;-75
2023/04/18 11:18:59;;;;;;;24.05;13.10;;;;;;;;;;5051454;28;20060;-75
2023/04/18 11:21:26;;;;;;;22.85;13.43;;;;;;;;;;5052814;28;20024;-75
2023/04/18 11:23:55;;;;;;;23.08;12.85;;;;;;;;;;5052670;28;20048;-76
2023/04/18 11:26:27;;;;;;;23.88;12.90;;;;;;;;;;5051489;28;20032;-76
2023/04/18 11:28:56;;;;;;;24.92;13.30;;;;;;;;;;5051554;28;20028;-75
2023/04/18 11:31:23;;;;;;;24.17;13.45;;;;;;;;;;5051559;28;20032;-75
2023/04/18 11:33:49;;;;;;;21.42;13.25;;;;;;;;;;5051330;28;20025;-75
2023/04/18 11:36:14;;;;;;;21.63;12.90;;;;;;;;;;5052873;28;20043;-75
2023/04/18 11:38:40;;;;;;;24.50;12.60;;;;;;;;;;5051699;28;20071;-75
2023/04/18 11:41:14;;;;;;;22.48;12.55;;;;;;;;;;5052708;28;20100;-75
2023/04/18 11:43:43;;;;;;;23.33;13.07;;;;;;;;;;5051330;28;20033;-76
2023/04/18 11:46:09;;;;;;;22.30;12.93;;;;;;;;;;5052833;28;20480;-75
2023/04/18 11:48:36;;;;;;;21.42;13.00;;;;;;;;;;5051386;28;20099;-75
2023/04/18 11:51:01;;;;;;;21.55;12.65;;;;;;;;;;5052907;28;20033;-75
2023/04/18 11:53:33;;;;;;;20.48;12.35;;;;;;;;;;5052521;28;20052;-75
2023/04/18 11:55:58;;;;;;;24.50;13.38;;;;;;;;;;5052465;28;20137;-75
2023/04/18 11:58:34;;;;;;;22.27;12.52;;;;;;;;;;5053083;28;20437;-76
2023/04/18 12:01:14;;;;;;;21.35;12.80;;;;;;;;;;5052677;28;20110;-75
2023/04/18 12:03:41;;;;;;;23.48;13.05;;;;;;;;;;5052294;28;20075;-75
2023/04/18 12:06:06;;;;;;;28.15;12.88;;;;;;;;;;5052367;28;20028;-75
2023/04/18 12:08:31;;;;;;;21.15;12.98;;;;;;;;;;5052574;28;20400;-75
2023/04/18 12:10:56;;;;;;;27.45;13.55;;;;;;;;;;5052868;28;20032;-75
2023/04/18 12:13:30;;;;;;;25.70;13.35;;;;;;;;;;5052165;28;20028;-74
2023/04/18 12:15:55;;;;;;;24.70;13.25;;;;;;;;;;5052156;28;20021;-76
2023/04/18 12:18:23;;;;;;;24.63;13.10;;;;;;;;;;5053156;28;20112;-75
2023/04/18 12:20:50;;;;;;;22.13;13.23;;;;;;;;;;5056024;28;20025;-75
2023/04/18 12:23:32;;;;;;;18.55;10.48;;;;;;;;;;5055780;28;20128;-75
2023/04/18 12:26:01;;;;;;;21.08;12.13;;;;;;;;;;5056188;28;20025;-76
2023/04/18 12:28:26;;;;;;;21.98;12.15;;;;;;;;;;5056192;28;20103;-75
2023/04/18 12:30:52;;;;;;;22.13;12.88;;;;;;;;;;5055745;28;20463;-75
2023/04/18 12:33:18;;;;;;;21.60;12.98;;;;;;;;;;5055662;28;20032;-75
2023/04/18 12:35:44;;;;;;;22.48;13.10;;;;;;;;;;5054529;28;20021;-75
2023/04/18 12:38:09;;;;;;;15.50;8.52;;;;;;;;;;5055645;28;20029;-76
2023/04/18 12:40:38;;;;;;;22.42;12.38;;;;;;;;;;5055531;28;20032;-76
2023/04/18 12:43:03;;;;;;;22.30;12.52;;;;;;;;;;5055623;28;20117;-75
2023/04/18 12:45:28;;;;;;;24.00;11.18;;;;;;;;;;5054269;28;20036;-75
2023/04/18 12:47:53;;;;;;;20.20;11.05;;;;;;;;;;5055518;28;20020;-75
2023/04/18 12:50:21;;;;;;;21.05;12.13;;;;;;;;;;5055403;28;20033;-75
2023/04/18 12:52:47;;;;;;;20.33;11.40;;;;;;;;;;5055232;28;20476;-75
2023/04/18 12:55:13;;;;;;;22.17;12.05;;;;;;;;;;5054294;28;20036;-73
2023/04/18 12:57:40;;;;;;;21.17;11.60;;;;;;;;;;5055443;28;20025;-75
2023/04/18 13:00:11;;;;;;;18.95;11.18;;;;;;;;;;5053876;28;20021;-75
2023/04/18 13:02:39;;;;;;;24.77;11.73;;;;;;;;;;5055235;28;20496;-76
2023/04/18 13:05:06;;;;;;;20.95;11.25;;;;;;;;;;5055067;28;20033;-76
2023/04/18 13:07:32;;;;;;;18.88;10.68;;;;;;;;;;5055318;28;20029;-75
2023/04/18 13:09:57;;;;;;;17.55;10.50;;;;;;;;;;5054972;28;20021;-75
2023/04/18 13:12:22;;;;;;;20.75;10.82;;;;;;;;;;5055052;28;20040;-73
2023/04/18 13:14:47;;;;;;;16.63;10.00;;;;;;;;;;5054787;28;20565;-74
2023/04/18 13:17:13;;;;;;;17.93;10.13;;;;;;;;;;5055103;28;20035;-74
2023/04/18 13:19:38;;;;;;;16.97;10.07;;;;;;;;;;5055159;28;20257;-74
2023/04/18 13:22:03;;;;;;;17.42;10.07;;;;;;;;;;5054768;28;20297;-75
2023/04/18 13:24:29;;;;;;;19.83;11.25;;;;;;;;;;5055217;28;20037;-74
2023/04/18 13:26:54;;;;;;;18.95;10.60;;;;;;;;;;5054921;28;20033;-74
2023/04/18 13:29:19;;;;;;;19.30;10.27;;;;;;;;;;5054531;28;20032;-74
2023/04/18 13:31:44;;;;;;;23.40;11.00;;;;;;;;;;5054668;28;20540;-75
2023/04/18 13:34:10;;;;;;;18.08;9.35;;;;;;;;;;5054509;28;20772;-75
2023/04/18 13:36:35;;;;;;;18.10;9.90;;;;;;;;;;5055110;28;20039;-74
2023/04/18 13:39:00;;;;;;;16.80;9.77;;;;;;;;;;5054568;28;20253;-76
2023/04/18 13:41:26;;;;;;;19.45;9.95;;;;;;;;;;5054524;28;20392;-75
2023/04/18 13:43:51;;;;;;;17.25;9.65;;;;;;;;;;5054209;28;20101;-75
2023/04/18 13:46:17;;;;;;;15.00;8.80;;;;;;;;;;5054724;28;20030;-75
2023/04/18 13:48:42;;;;;;;15.75;9.02;;;;;;;;;;5054411;28;20032;-75
2023/04/18 13:51:07;;;;;;;15.05;9.45;;;;;;;;;;5054502;28;20392;-75
2023/04/18 13:53:33;;;;;;;12.83;8.33;;;;;;;;;;5054132;28;20021;-74
2023/04/18 13:56:00;;;;;;;14.87;8.50;;;;;;;;;;5054219;28;20345;-75
2023/04/18 13:58:25;;;;;;;17.55;8.82;;;;;;;;;;5054101;28;20654;-74
2023/04/18 14:00:50;;;;;;;17.23;9.00;;;;;;;;;;5054387;28;20033;-75
2023/04/18 14:03:15;;;;;;;17.77;8.50;;;;;;;;;;5053950;28;20396;-75
2023/04/18 14:05:40;;;;;;;14.43;8.47;;;;;;;;;;5054494;28;20606;-75
2023/04/18 14:08:06;;;;;;;14.07;9.00;;;;;;;;;;5053839;28;20684;-74
2023/04/18 14:10:31;;;;;;;14.75;8.63;;;;;;;;;;5053932;28;20637;-74
2023/04/18 14:12:56;;;;;;;13.68;8.75;;;;;;;;;;5053511;28;20044;-74
2023/04/18 14:15:22;;;;;;;16.15;8.82;;;;;;;;;;5053704;28;20032;-75